Time;durP1;ratioP1;P1;durP2;ratioP2;P2;SDS_P1;SDS_P2;PMS_P1;PMS_P2;Temp;Humidity;BMP_temperature;BMP_pressure;BME280_temperature;BME280_humidity;BME280_pressure;Samples;Min_cycle;Max_cycle;Signal;HPM_P1;HPM_P2
2023/11/07 00:00:12;;;;;;;7.50;4.10;;;;;;;8.23;82.98;99696.44;130167;1256;128735;-58
2023/11/07 00:03:34;;;;;;;9.60;4.60;;;;;;;8.18;82.80;99695.08;130017;1259;115211;-58
2023/11/07 00:06:40;;;;;;;12.50;4.60;;;;;;;8.13;82.76;99700.65;130280;1256;116356;-58
2023/11/07 00:09:42;;;;;;;7.60;4.60;;;;;;;8.08;82.89;99702.14;130283;1275;115090;-59
2023/11/07 00:12:44;;;;;;;12.20;4.50;;;;;;;8.00;82.96;99708.19;130274;1275;114714;-59
2023/11/07 00:15:46;;;;;;;9.50;4.10;;;;;;;7.94;82.64;99711.34;130378;1275;114702;-63
2023/11/07 00:18:48;;;;;;;11.40;4.40;;;;;;;7.87;82.78;99714.89;130361;1255;128291;-59
2023/11/07 00:21:50;;;;;;;12.70;5.70;;;;;;;7.81;83.07;99718.00;130021;1256;114728;-60
2023/11/07 00:24:55;;;;;;;12.00;4.80;;;;;;;7.75;82.77;99720.95;130128;1257;114701;-60
2023/11/07 00:27:57;;;;;;;9.40;4.80;;;;;;;7.70;82.73;99724.58;130238;1256;115070;-59
2023/11/07 00:30:59;;;;;;;11.50;4.90;;;;;;;7.65;83.15;99727.67;130027;1262;114750;-59
2023/11/07 00:34:01;;;;;;;8.80;4.30;;;;;;;7.62;83.16;99730.08;130076;1275;114763;-58
2023/11/07 00:37:03;;;;;;;11.30;4.90;;;;;;;7.61;83.34;99734.93;130011;1275;114904;-57
2023/11/07 00:40:07;;;;;;;8.60;3.70;;;;;;;7.61;83.24;99734.25;130132;1256;114791;-58
2023/11/07 00:43:09;;;;;;;12.20;4.20;;;;;;;7.60;83.10;99735.86;130039;1257;114739;-58
2023/11/07 00:46:11;;;;;;;12.40;4.00;;;;;;;7.62;83.34;99736.52;129981;1275;115071;-59
2023/11/07 00:49:13;;;;;;;8.50;3.60;;;;;;;7.63;83.28;99738.23;130078;1252;115309;-58
2023/11/07 00:52:15;;;;;;;9.80;4.20;;;;;;;7.66;83.42;99736.52;130095;1275;114762;-59
2023/11/07 00:55:17;;;;;;;10.70;4.20;;;;;;;7.69;83.34;99741.14;130021;1275;114732;-58
2023/11/07 00:58:20;;;;;;;9.40;4.00;;;;;;;7.72;83.48;99733.35;130165;1275;114715;-58
2023/11/07 01:01:23;;;;;;;7.80;3.90;;;;;;;7.75;83.82;99736.41;130188;1275;128571;-59
2023/11/07 01:04:25;;;;;;;9.00;3.50;;;;;;;7.81;83.54;99741.49;129969;1259;115337;-59
2023/11/07 01:07:27;;;;;;;11.70;4.00;;;;;;;7.84;83.83;99739.55;130064;1256;114715;-59
2023/11/07 01:10:30;;;;;;;7.70;3.30;;;;;;;7.88;83.63;99745.94;130165;1257;114786;-59
2023/11/07 01:13:32;;;;;;;7.70;3.10;;;;;;;7.91;83.45;99747.38;129861;1260;114792;-58
2023/11/07 01:16:34;;;;;;;5.80;3.10;;;;;;;7.96;83.62;99745.05;130017;1275;114826;-58
2023/11/07 01:19:39;;;;;;;8.40;3.50;;;;;;;8.00;83.73;99745.57;130247;1273;114715;-59
2023/11/07 01:22:41;;;;;;;6.00;2.70;;;;;;;8.03;83.93;99745.42;129844;1275;127848;-59
2023/11/07 01:25:43;;;;;;;6.60;2.80;;;;;;;8.07;83.59;99750.92;130200;1272;114687;-58
2023/11/07 01:28:46;;;;;;;6.60;3.10;;;;;;;8.12;83.70;99756.17;130211;1258;114714;-58
2023/11/07 01:31:51;;;;;;;4.60;2.90;;;;;;;8.18;83.98;99765.35;129897;1275;114894;-59
2023/11/07 01:34:52;;;;;;;;;;;;;;;8.24;84.00;99763.61;130202;1254;114940;-59
2023/11/07 01:37:55;;;;;;;5.60;2.50;;;;;;;8.32;84.32;99767.70;130087;1256;115187;-60
2023/11/07 01:40:57;;;;;;;8.00;2.70;;;;;;;8.40;84.38;99766.23;130150;1275;114700;-60
2023/11/07 01:44:00;;;;;;;6.00;2.40;;;;;;;8.48;84.61;99767.44;130064;1275;114725;-61
2023/11/07 01:47:02;;;;;;;5.40;2.70;;;;;;;8.56;84.81;99768.67;130010;1275;115233;-62
2023/11/07 01:50:08;;;;;;;6.10;2.80;;;;;;;8.63;85.05;99767.08;130091;1274;114711;-60
2023/11/07 01:53:09;;;;;;;;;;;;;;;8.69;85.40;99774.98;129843;1254;114890;-59
2023/11/07 01:56:12;;;;;;;7.30;3.20;;;;;;;8.74;85.75;99775.80;130048;1275;114696;-58
2023/11/07 01:59:14;;;;;;;4.30;2.40;;;;;;;8.77;85.74;99780.44;130130;1275;114680;-58
2023/11/07 02:02:18;;;;;;;5.30;2.40;;;;;;;8.80;85.68;99780.27;130039;1256;128877;-61
2023/11/07 02:05:20;;;;;;;6.60;2.50;;;;;;;8.84;85.80;99782.59;129854;1257;116308;-61
2023/11/07 02:08:23;;;;;;;6.60;2.80;;;;;;;8.87;85.80;99782.44;130190;1256;115112;-58
2023/11/07 02:11:28;;;;;;;8.50;2.80;;;;;;;8.90;85.76;99781.77;130094;1256;114805;-61
2023/11/07 02:14:32;;;;;;;;;;;;;;;8.93;85.83;99788.52;129882;1275;114778;-59
2023/11/07 02:17:34;;;;;;;7.80;2.50;;;;;;;8.95;85.82;99788.22;130124;1256;128944;-58
2023/11/07 02:20:38;;;;;;;4.40;2.70;;;;;;;8.99;85.84;99790.95;130269;1253;114753;-59
2023/11/07 02:23:40;;;;;;;6.30;2.90;;;;;;;9.03;85.71;99798.05;130382;1258;114845;-58
2023/11/07 02:26:42;;;;;;;4.90;2.40;;;;;;;9.06;85.81;99800.87;130264;1268;114777;-60
2023/11/07 02:29:46;;;;;;;4.30;2.60;;;;;;;9.10;85.68;99801.06;130342;1255;115412;-58
2023/11/07 02:32:48;;;;;;;6.70;2.70;;;;;;;9.14;85.77;99795.16;130258;1274;114742;-58
2023/11/07 02:35:50;;;;;;;5.70;2.50;;;;;;;9.17;85.68;99792.84;130137;1257;115305;-58
2023/11/07 02:38:52;;;;;;;4.80;2.40;;;;;;;9.20;85.58;99796.08;130371;1257;114751;-58
2023/11/07 02:41:55;;;;;;;5.60;2.80;;;;;;;9.23;85.52;99795.22;130333;1274;115224;-57
2023/11/07 02:44:59;;;;;;;5.80;2.40;;;;;;;9.26;85.42;99805.40;130263;1274;114776;-58
2023/11/07 02:48:02;;;;;;;3.20;2.30;;;;;;;9.29;85.52;99805.04;130488;1275;115061;-58
2023/11/07 02:51:06;;;;;;;;;;;;;;;9.33;85.66;99805.02;130220;1254;114658;-58
2023/11/07 02:54:10;;;;;;;4.00;2.60;;;;;;;9.36;85.49;99808.41;130227;1275;129087;-58
2023/11/07 02:57:12;;;;;;;6.80;2.80;;;;;;;9.40;85.67;99806.98;130223;1274;115266;-58
2023/11/07 03:00:15;;;;;;;6.50;2.30;;;;;;;9.44;85.37;99808.55;130255;1255;115086;-59
2023/11/07 03:03:17;;;;;;;4.70;2.30;;;;;;;9.47;85.32;99807.67;129900;1259;114705;-58
2023/11/07 03:06:20;;;;;;;4.70;2.10;;;;;;;9.50;84.89;99809.09;130310;1273;114807;-58
2023/11/07 03:09:22;;;;;;;4.30;2.00;;;;;;;9.54;85.04;99810.17;130189;1274;114905;-58
2023/11/07 03:12:24;;;;;;;5.40;2.30;;;;;;;9.57;85.04;99809.27;130237;1272;114645;-59
2023/11/07 03:15:26;;;;;;;2.80;1.90;;;;;;;9.61;84.94;99811.21;130273;1274;128991;-59
2023/11/07 03:18:28;;;;;;;3.60;2.30;;;;;;;9.64;84.86;99819.27;130216;1256;114702;-59
2023/11/07 03:21:30;;;;;;;3.30;2.30;;;;;;;9.66;84.72;99821.10;130214;1272;115308;-59
2023/11/07 03:24:32;;;;;;;3.00;2.10;;;;;;;9.69;84.45;99829.69;130194;1256;114680;-59
2023/11/07 03:27:36;;;;;;;4.20;2.50;;;;;;;9.72;84.44;99827.59;130333;1254;114695;-59
2023/11/07 03:30:38;;;;;;;4.50;2.60;;;;;;;9.74;84.37;99830.68;130137;1257;115281;-59
2023/11/07 03:33:40;;;;;;;3.70;1.90;;;;;;;9.74;84.41;99828.02;130001;1268;115367;-60
2023/11/07 03:36:43;;;;;;;3.90;2.20;;;;;;;9.72;84.14;99830.20;130133;1267;114706;-62
2023/11/07 03:39:45;;;;;;;3.90;2.10;;;;;;;9.72;84.27;99835.08;129888;1271;115227;-61
2023/11/07 03:42:47;;;;;;;3.70;2.00;;;;;;;9.68;84.08;99835.61;130126;1262;114746;-61
2023/11/07 03:45:49;;;;;;;3.40;1.90;;;;;;;9.63;83.87;99835.17;130063;1257;114733;-59
2023/11/07 03:48:52;;;;;;;4.40;2.10;;;;;;;9.58;83.95;99839.02;130329;1272;114623;-60
2023/11/07 03:51:54;;;;;;;3.80;2.40;;;;;;;9.51;83.81;99835.08;130207;1254;115331;-59
2023/11/07 03:54:57;;;;;;;2.30;1.90;;;;;;;9.44;83.43;99835.27;130133;1256;114807;-59
2023/11/07 03:57:59;;;;;;;2.90;1.80;;;;;;;9.37;83.68;99846.33;130300;1254;114731;-61
2023/11/07 04:01:02;;;;;;;2.70;1.80;;;;;;;9.29;83.67;99840.14;130178;1254;115208;-59
2023/11/07 04:04:06;;;;;;;6.40;2.50;;;;;;;9.21;83.70;99843.78;127594;1257;3414181;-61
2023/11/07 04:07:08;;;;;;;3.30;1.90;;;;;;;9.13;83.63;99836.16;130105;1257;115374;-59
2023/11/07 04:10:10;;;;;;;3.00;2.20;;;;;;;9.04;83.76;99844.26;130231;1256;115137;-60
2023/11/07 04:13:13;;;;;;;3.60;2.20;;;;;;;8.95;83.76;99836.87;130260;1274;115285;-59
2023/11/07 04:16:15;;;;;;;2.90;2.00;;;;;;;8.88;83.84;99844.74;129893;1261;115756;-62
2023/11/07 04:19:17;;;;;;;5.60;2.30;;;;;;;8.79;83.68;99844.27;130017;1256;114743;-59
2023/11/07 04:22:19;;;;;;;3.30;2.40;;;;;;;8.71;83.72;99850.38;130241;1272;114704;-59
2023/11/07 04:25:21;;;;;;;4.00;2.80;;;;;;;8.63;83.93;99853.40;129848;1275;114718;-60
2023/11/07 04:28:25;;;;;;;3.00;2.40;;;;;;;8.55;84.21;99859.14;130090;1275;114699;-58
2023/11/07 04:31:27;;;;;;;6.60;2.40;;;;;;;8.47;83.94;99855.60;130228;1272;114808;-59
2023/11/07 04:34:29;;;;;;;6.20;2.60;;;;;;;8.39;84.13;99855.24;130283;1257;115318;-59
2023/11/07 04:37:32;;;;;;;3.80;2.90;;;;;;;8.31;84.50;99860.95;130131;1256;114702;-58
2023/11/07 04:40:34;;;;;;;3.50;2.30;;;;;;;8.23;84.44;99861.17;129884;1275;127590;-62
2023/11/07 04:43:37;;;;;;;7.20;2.40;;;;;;;8.15;84.32;99866.14;130102;1256;115086;-59
2023/11/07 04:46:39;;;;;;;3.00;2.30;;;;;;;8.08;84.24;99875.57;130108;1256;114817;-59
2023/11/07 04:49:42;;;;;;;7.00;2.40;;;;;;;7.98;84.18;99873.69;130010;1257;115348;-59
2023/11/07 04:52:44;;;;;;;3.40;2.30;;;;;;;7.90;84.85;99877.42;130165;1268;114842;-59
2023/11/07 04:55:46;;;;;;;5.20;2.70;;;;;;;7.83;84.70;99880.95;130008;1253;115118;-59
2023/11/07 04:58:49;;;;;;;4.80;2.00;;;;;;;7.76;84.94;99880.71;130051;1266;115351;-59
2023/11/07 05:01:52;;;;;;;4.50;2.20;;;;;;;7.68;84.76;99879.64;130097;1275;128822;-58
2023/11/07 05:04:54;;;;;;;2.50;1.90;;;;;;;7.60;85.12;99885.85;129868;1275;115263;-59
2023/11/07 05:07:56;;;;;;;3.20;2.20;;;;;;;7.53;85.14;99894.70;130011;1275;114686;-61
2023/11/07 05:10:58;;;;;;;3.40;2.00;;;;;;;7.45;85.11;99896.83;130092;1256;114843;-59
2023/11/07 05:14:00;;;;;;;4.00;2.10;;;;;;;7.39;85.41;99898.86;129842;1275;114814;-61
2023/11/07 05:17:02;;;;;;;4.20;2.60;;;;;;;7.33;85.58;99898.20;129992;1275;115259;-58
2023/11/07 05:20:07;;;;;;;6.30;3.20;;;;;;;7.29;85.87;99903.16;130069;1275;114761;-58
2023/11/07 05:23:09;;;;;;;3.00;2.30;;;;;;;7.27;85.71;99908.41;129815;1260;127753;-60
2023/11/07 05:26:11;;;;;;;4.30;2.50;;;;;;;7.26;85.82;99914.51;130077;1258;114705;-60
2023/11/07 05:29:14;;;;;;;6.60;3.20;;;;;;;7.24;85.74;99917.40;130195;1257;115377;-60
2023/11/07 05:32:17;;;;;;;4.30;2.70;;;;;;;7.24;86.17;99917.60;130137;1257;115087;-58
2023/11/07 05:35:19;;;;;;;4.60;2.70;;;;;;;7.26;86.65;99918.96;130132;1267;114731;-59
2023/11/07 05:38:22;;;;;;;6.70;3.50;;;;;;;7.27;86.53;99920.84;130238;1275;114736;-59
2023/11/07 05:41:25;;;;;;;3.80;2.40;;;;;;;7.29;86.69;99922.00;130090;1264;114981;-59
2023/11/07 05:44:27;;;;;;;2.80;2.50;;;;;;;7.31;86.98;99926.38;130088;1256;129321;-58
2023/11/07 05:47:29;;;;;;;5.40;2.30;;;;;;;7.33;86.87;99926.11;130121;1257;115060;-58
2023/11/07 05:50:31;;;;;;;4.30;2.60;;;;;;;7.35;86.92;99929.27;130199;1257;115445;-59
2023/11/07 05:53:33;;;;;;;4.50;2.40;;;;;;;7.37;87.38;99935.36;130086;1260;114793;-59
2023/11/07 05:56:36;;;;;;;5.50;2.20;;;;;;;7.37;87.26;99936.77;130051;1273;115196;-60
2023/11/07 05:59:38;;;;;;;4.50;2.10;;;;;;;7.39;87.24;99937.41;130189;1275;114699;-59
2023/11/07 06:02:40;;;;;;;4.00;2.30;;;;;;;7.40;87.24;99943.58;130219;1275;114690;-59
2023/11/07 06:05:42;;;;;;;4.40;2.50;;;;;;;7.41;87.13;99944.23;130176;1275;114680;-58
2023/11/07 06:08:44;;;;;;;5.10;3.30;;;;;;;7.43;87.53;99946.48;130248;1275;115427;-59
2023/11/07 06:11:46;;;;;;;3.60;2.10;;;;;;;7.44;87.44;99948.55;130128;1254;115281;-59
2023/11/07 06:14:48;;;;;;;3.80;2.40;;;;;;;7.46;87.57;99953.45;130185;1256;115151;-59
2023/11/07 06:17:50;;;;;;;2.80;2.00;;;;;;;7.50;87.73;99956.33;130402;1266;115204;-59
2023/11/07 06:20:52;;;;;;;3.10;2.10;;;;;;;7.53;87.66;99958.69;129763;1254;114802;-59
2023/11/07 06:23:55;;;;;;;2.60;2.00;;;;;;;7.56;87.86;99960.66;130069;1266;115389;-59
2023/11/07 06:26:57;;;;;;;3.40;3.10;;;;;;;7.61;87.83;99964.36;130211;1257;114723;-59
2023/11/07 06:30:03;;;;;;;4.50;3.00;;;;;;;7.67;87.66;99964.63;129997;1275;115142;-58
2023/11/07 06:33:07;;;;;;;2.70;2.50;;;;;;;7.75;87.99;99964.86;130248;1260;114798;-59
2023/11/07 06:36:09;;;;;;;3.00;2.10;;;;;;;7.83;87.64;99967.16;130158;1275;114738;-58
2023/11/07 06:39:12;;;;;;;2.60;2.40;;;;;;;7.92;87.81;99971.56;130152;1275;114701;-57
2023/11/07 06:42:17;;;;;;;8.40;5.50;;;;;;;8.01;87.48;99973.84;130159;1275;114680;-59
2023/11/07 06:45:19;;;;;;;10.50;9.10;;;;;;;8.11;87.68;99978.91;130114;1261;114785;-58
2023/11/07 06:48:22;;;;;;;10.70;7.50;;;;;;;8.19;87.57;99975.88;129969;1266;114798;-57
2023/11/07 06:51:24;;;;;;;6.00;5.20;;;;;;;8.26;87.67;99978.61;130194;1257;115928;-58
2023/11/07 06:54:26;;;;;;;5.20;4.30;;;;;;;8.33;87.42;99978.84;130102;1266;114842;-58
2023/11/07 06:57:28;;;;;;;4.50;2.50;;;;;;;8.40;87.17;99980.45;130109;1264;114792;-58
2023/11/07 07:00:30;;;;;;;2.50;2.00;;;;;;;8.46;87.01;99985.00;130200;1257;114659;-58
2023/11/07 07:03:33;;;;;;;4.20;2.00;;;;;;;8.54;87.49;99986.46;129783;1260;128378;-59
2023/11/07 07:06:35;;;;;;;4.80;2.10;;;;;;;8.65;87.21;99986.11;130138;1258;114709;-58
2023/11/07 07:09:39;;;;;;;4.60;2.50;;;;;;;8.78;87.31;99993.15;130192;1257;114709;-58
2023/11/07 07:12:41;;;;;;;5.20;1.90;;;;;;;8.97;87.31;99994.23;129998;1260;114789;-59
2023/11/07 07:15:45;;;;;;;5.10;2.70;;;;;;;9.23;87.02;99998.69;130003;1258;114838;-58
2023/11/07 07:18:47;;;;;;;13.30;8.60;;;;;;;9.49;86.75;100000.27;130141;1268;114798;-59
2023/11/07 07:21:52;;;;;;;14.10;5.70;;;;;;;9.71;86.36;100008.47;130219;1275;114756;-58
2023/11/07 07:24:55;;;;;;;11.70;5.50;;;;;;;9.90;86.40;100010.35;130312;1265;115167;-58
2023/11/07 07:27:57;;;;;;;5.20;3.50;;;;;;;10.08;86.01;100010.66;130241;1275;115080;-59
2023/11/07 07:30:59;;;;;;;4.80;2.70;;;;;;;10.25;85.50;100012.09;130321;1256;114776;-57
2023/11/07 07:34:04;;;;;;;3.20;1.90;;;;;;;10.43;85.68;100009.39;130306;1264;114658;-58
2023/11/07 07:37:09;;;;;;;3.20;1.60;;;;;;;10.66;85.30;100010.34;129874;1260;114834;-59
2023/11/07 07:40:14;;;;;;;3.00;1.80;;;;;;;10.75;84.58;100013.05;129966;1254;128331;-57
2023/11/07 07:43:19;;;;;;;4.20;1.70;;;;;;;10.79;83.94;100016.36;129915;1257;115242;-58
2023/11/07 07:46:27;;;;;;;5.80;1.80;;;;;;;10.94;83.87;100013.41;130211;1257;114776;-61
2023/11/07 07:49:32;;;;;;;4.30;1.80;;;;;;;11.11;83.94;100012.66;130171;1255;114708;-57
2023/11/07 07:52:37;;;;;;;;;;;;;;;11.27;83.42;100011.06;129814;1260;114878;-58
2023/11/07 07:55:43;;;;;;;3.50;1.30;;;;;;;11.35;82.81;100014.69;129708;1271;127269;-58
2023/11/07 07:58:45;;;;;;;3.30;1.70;;;;;;;11.42;82.85;100015.16;129880;1260;116567;-58
2023/11/07 08:01:47;;;;;;;2.60;1.30;;;;;;;11.49;82.06;100011.38;130067;1257;114715;-58
2023/11/07 08:04:49;;;;;;;2.10;1.40;;;;;;;11.52;82.04;100013.52;130068;1254;114667;-59
2023/11/07 08:07:52;;;;;;;2.50;1.60;;;;;;;11.57;81.81;100017.89;130026;1257;115145;-59
2023/11/07 08:10:57;;;;;;;4.20;1.80;;;;;;;11.63;81.32;100018.77;129998;1266;115189;-58
2023/11/07 08:13:59;;;;;;;3.40;1.90;;;;;;;11.71;81.18;100017.43;129704;1262;128284;-58
2023/11/07 08:17:02;;;;;;;3.20;1.60;;;;;;;11.79;80.76;100015.55;129913;1275;114712;-58
2023/11/07 08:20:14;;;;;;;3.50;1.20;;;;;;;11.85;80.52;100011.95;130308;1257;114891;-58
2023/11/07 08:23:16;;;;;;;2.70;1.60;;;;;;;11.91;80.30;100016.65;129924;1254;114718;-58
2023/11/07 08:26:19;;;;;;;4.50;1.60;;;;;;;11.95;80.49;100021.42;130213;1257;114859;-58
2023/11/07 08:29:21;;;;;;;12.00;4.40;;;;;;;11.97;80.26;100021.11;130284;1256;114792;-58
2023/11/07 08:32:25;;;;;;;9.40;3.70;;;;;;;12.02;79.77;100023.50;130232;1251;115636;-58
2023/11/07 08:35:27;;;;;;;34.40;11.50;;;;;;;12.10;80.15;100025.89;129890;1275;128530;-58
2023/11/07 08:38:30;;;;;;;29.80;8.40;;;;;;;12.23;79.87;100030.15;130215;1264;114748;-58
2023/11/07 08:41:32;;;;;;;26.90;8.00;;;;;;;12.36;79.67;100028.48;130139;1257;114829;-58
2023/11/07 08:44:34;;;;;;;5.70;2.20;;;;;;;12.45;78.86;100032.56;130251;1275;115335;-59
2023/11/07 08:47:37;;;;;;;3.20;1.50;;;;;;;12.53;79.09;100035.84;130096;1257;114804;-60
2023/11/07 08:50:40;;;;;;;11.00;2.50;;;;;;;12.65;78.77;100034.89;130221;1257;114701;-59
2023/11/07 08:53:45;;;;;;;6.10;1.40;;;;;;;12.78;78.54;100034.48;130201;1274;114769;-58
2023/11/07 08:56:50;;;;;;;3.20;1.40;;;;;;;12.88;78.13;100033.45;129910;1263;115276;-58
2023/11/07 08:59:52;;;;;;;3.80;1.50;;;;;;;13.01;78.21;100030.33;130157;1257;115174;-58
2023/11/07 09:02:54;;;;;;;2.80;1.40;;;;;;;13.17;78.10;100031.84;130208;1256;114854;-58
2023/11/07 09:05:56;;;;;;;2.20;1.20;;;;;;;13.34;78.08;100031.27;130345;1264;114823;-58
2023/11/07 09:08:58;;;;;;;15.50;5.80;;;;;;;13.52;77.26;100032.63;130116;1259;114878;-58
2023/11/07 09:12:00;;;;;;;9.90;3.00;;;;;;;13.70;77.10;100035.04;130254;1264;114820;-60
2023/11/07 09:15:05;;;;;;;3.90;1.70;;;;;;;13.86;76.32;100035.04;130204;1266;114896;-60
2023/11/07 09:18:07;;;;;;;;;;;;;;;14.01;76.54;100036.14;129940;1261;114800;-61
2023/11/07 09:21:09;;;;;;;2.90;1.60;;;;;;;14.17;76.02;100033.11;130279;1257;114749;-58
2023/11/07 09:24:12;;;;;;;3.50;1.20;;;;;;;14.29;75.01;100037.14;130242;1263;114801;-59
2023/11/07 09:27:14;;;;;;;1.80;1.10;;;;;;;14.39;74.27;100033.05;130282;1264;115848;-59
2023/11/07 09:30:17;;;;;;;2.70;1.40;;;;;;;14.47;73.70;100031.94;130202;1257;114714;-59
2023/11/07 09:33:19;;;;;;;2.00;1.30;;;;;;;14.52;73.75;100036.27;130221;1256;114683;-59
2023/11/07 09:36:21;;;;;;;2.80;2.00;;;;;;;14.60;73.18;100036.42;130395;1255;114776;-58
2023/11/07 09:39:23;;;;;;;4.60;1.40;;;;;;;14.67;72.83;100033.94;130136;1266;116436;-57
2023/11/07 09:42:28;;;;;;;2.60;1.20;;;;;;;14.74;72.48;100036.55;130182;1255;115132;-58
2023/11/07 09:45:35;;;;;;;4.10;1.40;;;;;;;14.82;72.23;100038.15;130189;1257;114830;-57
2023/11/07 09:48:37;;;;;;;1.70;1.10;;;;;;;14.86;71.46;100037.30;130015;1260;114668;-57
2023/11/07 09:51:42;;;;;;;2.10;1.20;;;;;;;14.91;71.20;100040.06;130164;1267;114824;-57
2023/11/07 09:54:44;;;;;;;;;;;;;;;14.92;71.07;100036.91;130221;1275;114846;-57
2023/11/07 09:57:55;;;;;;;3.30;1.30;;;;;;;14.91;70.89;100033.89;130101;1257;114736;-59
2023/11/07 10:00:58;;;;;;;3.30;1.80;;;;;;;14.91;70.78;100040.38;130335;1257;114708;-58
2023/11/07 10:04:02;;;;;;;3.90;1.20;;;;;;;14.86;70.14;100039.13;130159;1271;115125;-58
2023/11/07 10:07:04;;;;;;;2.70;1.30;;;;;;;14.79;70.19;100037.10;130201;1270;129696;-58
2023/11/07 10:10:08;;;;;;;9.90;2.00;;;;;;;14.72;69.65;100033.64;130237;1265;114770;-59
2023/11/07 10:13:11;;;;;;;3.10;1.90;;;;;;;14.64;69.72;100032.39;130328;1254;114692;-58
2023/11/07 10:16:14;;;;;;;3.10;1.90;;;;;;;14.60;69.76;100035.36;130299;1256;115096;-58
2023/11/07 10:19:21;;;;;;;4.30;1.50;;;;;;;14.59;69.48;100032.88;130240;1256;114737;-58
2023/11/07 10:22:23;;;;;;;4.90;1.50;;;;;;;14.56;69.03;100029.16;129775;1273;128100;-58
2023/11/07 10:25:26;;;;;;;4.20;1.30;;;;;;;14.53;68.94;100031.70;130354;1255;115198;-59
2023/11/07 10:28:28;;;;;;;3.20;1.60;;;;;;;14.51;69.13;100023.56;130329;1254;114770;-58
2023/11/07 10:31:30;;;;;;;3.50;1.50;;;;;;;14.48;68.73;100023.81;130421;1253;115154;-59
2023/11/07 10:34:33;;;;;;;5.10;2.20;;;;;;;14.40;68.28;100024.55;130061;1275;114800;-59
2023/11/07 10:37:37;;;;;;;3.80;1.50;;;;;;;14.32;67.96;100019.17;130109;1257;114857;-58
2023/11/07 10:40:41;;;;;;;2.40;1.10;;;;;;;14.23;67.80;100016.38;130136;1256;127846;-58
2023/11/07 10:43:43;;;;;;;4.20;2.30;;;;;;;14.17;67.94;100016.20;130265;1275;114756;-58
2023/11/07 10:46:48;;;;;;;3.90;1.40;;;;;;;14.12;67.85;100013.86;130273;1251;114760;-58
2023/11/07 10:49:51;;;;;;;4.20;1.70;;;;;;;14.08;67.73;100009.27;129892;1263;114964;-58
2023/11/07 10:52:53;;;;;;;1.50;1.30;;;;;;;14.04;67.40;100010.30;130063;1275;114733;-58
2023/11/07 10:55:58;;;;;;;3.90;1.50;;;;;;;14.00;67.55;100014.86;130101;1257;114795;-58
2023/11/07 10:59:01;;;;;;;;;;;;;;;13.97;68.02;100009.66;130182;1257;128490;-58
2023/11/07 11:02:04;;;;;;;2.10;1.20;;;;;;;13.94;67.57;100009.73;130140;1257;114701;-58
2023/11/07 11:05:11;;;;;;;1.70;1.20;;;;;;;13.90;66.98;100004.07;130112;1262;114932;-58
2023/11/07 11:08:16;;;;;;;4.00;1.60;;;;;;;13.84;66.80;99998.70;130223;1264;114688;-59
2023/11/07 11:11:19;;;;;;;7.30;1.40;;;;;;;13.79;66.61;99994.95;130241;1257;114859;-58
2023/11/07 11:14:23;;;;;;;1.90;1.50;;;;;;;13.74;66.43;99997.02;130103;1257;114760;-58
2023/11/07 11:17:37;;;;;;;3.60;1.80;;;;;;;13.71;66.20;99997.09;129743;1261;115238;-58
2023/11/07 11:20:58;;;;;;;1.60;1.30;;;;;;;13.70;66.26;99990.88;129808;1257;114867;-58
2023/11/07 11:24:04;;;;;;;3.80;1.40;;;;;;;13.66;65.85;99986.27;129788;1262;114916;-58
2023/11/07 11:27:16;;;;;;;4.50;1.30;;;;;;;13.63;65.62;99986.67;129775;1263;114846;-58
2023/11/07 11:30:27;;;;;;;1.90;1.10;;;;;;;13.59;65.29;99981.89;130074;1267;128844;-58
2023/11/07 11:33:29;;;;;;;2.30;1.40;;;;;;;13.57;64.96;99980.83;130026;1257;116376;-58
2023/11/07 11:36:33;;;;;;;3.30;1.60;;;;;;;13.57;65.22;99976.88;129993;1258;114804;-59
2023/11/07 11:39:36;;;;;;;3.70;1.70;;;;;;;13.56;65.09;99977.24;129802;1254;114920;-58
2023/11/07 11:43:04;;;;;;;4.10;2.00;;;;;;;13.58;65.09;99975.91;130076;1256;114722;-58
2023/11/07 11:46:15;;;;;;;6.40;1.40;;;;;;;13.61;65.05;99977.84;130081;1256;128249;-58
2023/11/07 11:49:18;;;;;;;4.30;2.10;;;;;;;13.63;64.79;99980.04;129824;1252;116370;-57
2023/11/07 11:52:34;;;;;;;4.20;1.30;;;;;;;13.67;64.54;99980.11;130085;1256;114798;-58
2023/11/07 11:55:58;;;;;;;3.30;1.50;;;;;;;13.70;64.39;99977.06;129831;1261;115147;-58
2023/11/07 11:59:01;;;;;;;3.00;1.10;;;;;;;13.72;64.54;99976.39;130004;1263;115321;-58
2023/11/07 12:02:05;;;;;;;2.50;1.00;;;;;;;13.74;64.31;99975.70;130130;1257;128535;-59
2023/11/07 12:05:12;;;;;;;1.60;1.10;;;;;;;13.76;64.21;99977.00;129751;1257;115138;-58
2023/11/07 12:08:33;;;;;;;5.30;1.00;;;;;;;13.74;63.97;99976.25;130037;1259;114844;-58
2023/11/07 12:11:43;;;;;;;14.10;2.60;;;;;;;13.66;63.82;99978.17;130188;1266;114804;-58
2023/11/07 12:14:55;;;;;;;3.40;1.30;;;;;;;13.60;63.91;99984.73;129925;1267;116318;-58
2023/11/07 12:17:58;;;;;;;2.70;1.40;;;;;;;13.54;63.74;99984.41;130294;1274;129417;-60
2023/11/07 12:21:02;;;;;;;2.50;1.50;;;;;;;13.47;63.65;99987.75;129755;1261;115192;-58
2023/11/07 12:24:04;;;;;;;4.40;1.30;;;;;;;13.45;63.89;99985.91;130079;1274;115159;-58
2023/11/07 12:27:10;;;;;;;3.90;1.10;;;;;;;13.46;64.03;99981.38;130277;1252;114764;-59
2023/11/07 12:30:17;;;;;;;2.30;1.10;;;;;;;13.42;63.60;99979.60;130047;1257;114851;-58
2023/11/07 12:33:19;;;;;;;3.10;1.90;;;;;;;13.36;63.66;99978.77;130177;1264;129080;-59
2023/11/07 12:36:22;;;;;;;4.50;1.50;;;;;;;13.30;63.83;99977.54;130178;1274;114785;-61
2023/11/07 12:39:24;;;;;;;3.50;1.90;;;;;;;13.26;63.67;99979.05;130198;1256;114721;-59
2023/11/07 12:42:27;;;;;;;4.60;2.30;;;;;;;13.25;64.01;99981.10;130133;1257;114770;-62
2023/11/07 12:45:33;;;;;;;2.40;1.50;;;;;;;13.27;63.98;99978.64;129983;1257;114780;-60
2023/11/07 12:48:37;;;;;;;3.10;1.30;;;;;;;13.28;63.82;99977.52;130238;1275;114791;-60
2023/11/07 12:51:40;;;;;;;5.00;1.40;;;;;;;13.33;63.79;99978.20;129874;1274;127871;-59
2023/11/07 12:54:42;;;;;;;1.50;1.20;;;;;;;13.41;63.65;99971.44;130248;1251;114820;-59
2023/11/07 12:57:49;;;;;;;1.00;0.90;;;;;;;13.49;63.57;99968.73;130269;1251;114820;-59
2023/11/07 13:00:59;;;;;;;1.70;1.20;;;;;;;13.60;63.74;99965.72;130229;1257;114887;-59
2023/11/07 13:04:15;;;;;;;3.30;1.60;;;;;;;13.70;63.29;99968.27;130176;1274;114744;-58
2023/11/07 13:07:17;;;;;;;4.30;1.50;;;;;;;13.76;63.00;99970.94;129771;1260;114700;-60
2023/11/07 13:10:23;;;;;;;3.40;1.30;;;;;;;13.82;63.19;99969.22;130170;1257;114810;-59
2023/11/07 13:13:26;;;;;;;3.20;1.50;;;;;;;13.87;62.83;99971.60;130121;1261;115240;-59
2023/11/07 13:16:30;;;;;;;5.60;1.90;;;;;;;13.90;63.05;99964.42;130229;1257;114743;-58
2023/11/07 13:19:32;;;;;;;1.90;1.40;;;;;;;13.91;62.95;99964.46;130074;1275;114789;-61
2023/11/07 13:22:35;;;;;;;3.40;1.60;;;;;;;13.93;62.85;99969.37;130055;1254;115204;-61
2023/11/07 13:25:38;;;;;;;5.50;2.90;;;;;;;13.93;62.69;99972.04;130064;1256;115189;-59
2023/11/07 13:28:44;;;;;;;6.10;2.60;;;;;;;13.92;62.51;99971.42;130247;1252;115649;-58
2023/11/07 13:31:46;;;;;;;2.70;1.90;;;;;;;13.90;62.19;99972.46;129740;1254;116172;-58
2023/11/07 13:34:48;;;;;;;2.50;1.80;;;;;;;13.89;62.46;99974.15;130222;1257;114689;-59
2023/11/07 13:37:51;;;;;;;3.60;1.70;;;;;;;13.88;62.45;99972.98;130063;1275;115102;-58
2023/11/07 13:40:54;;;;;;;7.10;1.30;;;;;;;13.85;62.46;99970.63;130150;1256;114846;-60
2023/11/07 13:43:56;;;;;;;2.10;1.30;;;;;;;13.82;62.30;99971.37;130141;1260;115372;-61
2023/11/07 13:46:58;;;;;;;4.40;2.20;;;;;;;13.79;62.31;99966.91;130123;1257;114702;-59
2023/11/07 13:50:04;;;;;;;3.20;1.80;;;;;;;13.77;62.35;99969.20;130127;1257;114761;-61
2023/11/07 13:53:08;;;;;;;5.20;2.10;;;;;;;13.77;62.67;99966.20;129990;1256;115188;-60
2023/11/07 13:56:14;;;;;;;4.90;2.10;;;;;;;13.74;62.17;99962.40;130074;1257;114814;-58
2023/11/07 13:59:16;;;;;;;4.70;2.30;;;;;;;13.71;62.40;99964.44;129771;1264;114990;-60
2023/11/07 14:02:18;;;;;;;6.10;2.30;;;;;;;13.70;62.81;99962.87;130070;1267;114731;-59
2023/11/07 14:05:22;;;;;;;9.40;3.80;;;;;;;13.68;62.86;99963.19;130006;1275;114750;-60